createdAt,value
2022-12-13T00:00:23.325Z,-11078.41
2022-12-13T00:01:27.890Z,-11078.19
2022-12-13T00:02:30.445Z,-11077.97
2022-12-13T00:03:32.920Z,-11077.97
2022-12-13T00:04:35.529Z,-11079.06
2022-12-13T00:05:44.884Z,-11077.06
2022-12-13T00:06:48.287Z,-10446.75
2022-12-13T00:07:50.872Z,-10447.28
2022-12-13T00:08:54.042Z,-10131.72
2022-12-13T00:09:56.452Z,-10760.97
2022-12-13T00:11:03.492Z,-10445.91
2022-12-13T00:12:06.255Z,-10131.09
2022-12-13T00:13:08.806Z,-9501.91
2022-12-13T00:14:14.272Z,-9186.94
2022-12-13T00:15:17.073Z,-7927.41
2022-12-13T00:16:25.433Z,-8241.91
2022-12-13T00:17:28.010Z,-7927.50
2022-12-13T00:18:31.249Z,-7927.69
2022-12-13T00:19:34.256Z,-8241.63
2022-12-13T00:20:40.854Z,-8871.63
2022-12-13T00:21:43.736Z,-8556.31
2022-12-13T00:22:46.373Z,-8871.81
2022-12-13T00:23:49.012Z,-7926.91
2022-12-13T00:24:54.421Z,-8241.19
2022-12-13T00:26:06.061Z,-8555.84
2022-12-13T00:27:08.817Z,-8241.56
2022-12-13T00:28:11.697Z,-8555.41
2022-12-13T00:29:14.258Z,-8871.09
2022-12-13T00:30:16.984Z,-9186.47
2022-12-13T00:31:53.452Z,-9817.00
2022-12-13T00:32:43.140Z,-9817.00
2022-12-13T00:33:45.786Z,-9501.72
2022-12-13T00:34:48.301Z,-9500.13
2022-12-13T00:35:50.820Z,-9185.31
2022-12-13T00:36:56.581Z,-9813.97
2022-12-13T00:37:59.480Z,-8555.56
2022-12-13T00:39:01.999Z,-8239.78
2022-12-13T00:40:04.869Z,-7925.53
2022-12-13T00:41:13.626Z,-7610.88
2022-12-13T00:42:16.145Z,-7295.75
2022-12-13T00:43:18.666Z,-7610.97
2022-12-13T00:44:21.318Z,-7296.00
2022-12-13T00:45:23.828Z,-7296.00
2022-12-13T00:46:27.055Z,-7295.91
2022-12-13T00:47:29.712Z,-7295.91
2022-12-13T00:48:32.235Z,-7295.75
2022-12-13T00:49:34.754Z,-7295.28
2022-12-13T00:50:38.604Z,-7295.44
2022-12-13T00:51:41.238Z,-6981.09
2022-12-13T00:52:43.758Z,-7296.00
2022-12-13T00:53:46.882Z,-7924.84
2022-12-13T00:54:49.404Z,-7924.94
2022-12-13T00:55:51.940Z,-8554.41
2022-12-13T00:56:54.699Z,-9499.53
2022-12-13T00:57:57.210Z,-9814.78
2022-12-13T00:59:00.210Z,-10129.22
2022-12-13T01:00:02.738Z,-10443.47
2022-12-13T01:01:13.567Z,-11387.97
2022-12-13T01:02:16.429Z,-11073.25
2022-12-13T01:03:25.488Z,-11072.72
2022-12-13T01:04:29.266Z,-12017.56
2022-12-13T01:06:12.633Z,-12018.19
2022-12-13T01:06:55.311Z,-12649.25
2022-12-13T01:07:58.155Z,-12650.13
2022-12-13T01:09:01.186Z,-12649.75
2022-12-13T01:10:05.388Z,-12965.22
2022-12-13T01:11:08.869Z,-13280.75
2022-12-13T01:12:11.990Z,-14225.94
2022-12-13T01:13:15.359Z,-13283.63
2022-12-13T01:14:19.202Z,-12968.03
2022-12-13T01:15:22.316Z,-12652.63
2022-12-13T01:16:25.585Z,-12651.75
2022-12-13T01:17:28.920Z,-12652.00
2022-12-13T01:18:32.521Z,-12966.88
2022-12-13T01:19:35.645Z,-12652.50
2022-12-13T01:20:39.364Z,-12652.50
2022-12-13T01:21:42.489Z,-12968.66
2022-12-13T01:22:45.610Z,-13284.13
2022-12-13T01:23:48.732Z,-13601.22
2022-12-13T01:24:51.853Z,-13917.50
2022-12-13T01:25:55.456Z,-14549.19
2022-12-13T01:26:59.296Z,-14865.59
2022-12-13T01:28:02.538Z,-14866.19
2022-12-13T01:29:06.260Z,-14550.88
2022-12-13T01:30:09.621Z,-14551.44
2022-12-13T01:31:15.793Z,-15809.81
2022-12-13T01:32:18.879Z,-15497.00
2022-12-13T01:33:22.348Z,-15811.63
2022-12-13T01:34:26.361Z,-15810.72
2022-12-13T01:35:30.030Z,-15497.28
2022-12-13T01:36:33.247Z,-15811.47
2022-12-13T01:37:41.673Z,-15811.31
2022-12-13T01:38:44.936Z,-16128.06
2022-12-13T01:39:48.519Z,-16444.59
2022-12-13T01:40:59.317Z,-16443.66
2022-12-13T01:42:04.962Z,-16443.03
2022-12-13T01:43:14.394Z,-16442.09
2022-12-13T01:44:55.368Z,-16756.09
2022-12-13T01:45:58.674Z,-16125.78
2022-12-13T01:47:01.969Z,-16124.25
2022-12-13T01:48:10.371Z,-16438.97
2022-12-13T01:49:19.184Z,-16753.53
2022-12-13T01:50:47.935Z,-17069.88
2022-12-13T01:51:59.575Z,-17069.41
2022-12-13T01:53:10.379Z,-17069.88
2022-12-13T01:54:14.633Z,-17384.63
2022-12-13T01:55:27.663Z,-17385.63
2022-12-13T01:56:41.106Z,-17384.31
2022-12-13T01:57:47.106Z,-17384.31
2022-12-13T01:58:52.677Z,-17384.97
2022-12-13T01:59:55.679Z,-17070.38
2022-12-13T02:01:00.169Z,-17385.63
2022-12-13T02:02:03.241Z,-17385.78
2022-12-13T02:03:06.435Z,-17070.69
2022-12-13T02:04:09.121Z,-17070.69
2022-12-13T02:05:19.613Z,-17383.66
2022-12-13T02:06:42.368Z,-18014.50
2022-12-13T02:07:47.362Z,-17699.88
2022-12-13T02:08:50.044Z,-17700.72
2022-12-13T02:09:59.174Z,-18015.16
2022-12-13T02:11:03.446Z,-18013.31
2022-12-13T02:12:07.085Z,-17699.56
2022-12-13T02:13:10.052Z,-17697.22
2022-12-13T02:14:12.610Z,-17696.56
2022-12-13T02:15:18.114Z,-18009.41
2022-12-13T02:16:33.495Z,-18323.25
2022-12-13T02:17:57.501Z,-18324.44
2022-12-13T02:19:50.983Z,-18637.22
2022-12-13T02:21:02.056Z,-18639.47
2022-12-13T02:22:26.148Z,-18956.81
2022-12-13T02:23:37.694Z,-18641.22
2022-12-13T02:25:28.567Z,-18955.75
2022-12-13T02:26:50.087Z,-18641.56
2022-12-13T02:27:52.639Z,-18958.41
2022-12-13T02:29:30.282Z,-19272.97
2022-12-13T02:30:36.138Z,-18957.34
2022-12-13T02:32:00.598Z,-19275.31
2022-12-13T02:33:25.703Z,-19275.50
2022-12-13T02:34:39.744Z,-19274.78
2022-12-13T02:35:53.662Z,-19274.59
2022-12-13T02:37:40.467Z,-19589.91
2022-12-13T02:38:52.464Z,-19591.19
2022-12-13T02:40:05.316Z,-19590.28
2022-12-13T02:41:27.508Z,-19591.75
2022-12-13T02:42:47.909Z,-19592.28
2022-12-13T02:44:21.748Z,-19591.38
2022-12-13T02:45:35.068Z,-19589.91
2022-12-13T02:46:43.276Z,-19589.56
2022-12-13T02:47:46.840Z,-19275.50
2022-12-13T02:48:53.190Z,-19591.00
2022-12-13T02:49:59.557Z,-19911.88
2022-12-13T02:51:04.979Z,-19912.81
2022-12-13T02:52:10.242Z,-19914.09
2022-12-13T02:53:16.478Z,-19913.91
2022-12-13T02:54:19.000Z,-19592.66
2022-12-13T02:55:26.555Z,-19592.81
2022-12-13T02:56:32.202Z,-19907.28
2022-12-13T02:57:37.724Z,-19907.28
2022-12-13T02:58:45.672Z,-19908.22
2022-12-13T02:59:48.287Z,-19597.19
2022-12-13T03:01:28.565Z,-19915.22
2022-12-13T03:02:32.476Z,-19597.91
2022-12-13T03:03:41.257Z,-19600.47
2022-12-13T03:05:30.058Z,-19917.06
2022-12-13T03:07:11.218Z,-19918.53
2022-12-13T03:08:26.372Z,-19918.91
2022-12-13T03:09:37.279Z,-19288.41
2022-12-13T03:10:52.527Z,-19605.56
2022-12-13T03:12:39.667Z,-19606.66
2022-12-13T03:13:52.755Z,-19607.72
2022-12-13T03:15:13.798Z,-19608.09
2022-12-13T03:16:23.541Z,-19293.22
2022-12-13T03:17:29.010Z,-19611.72
2022-12-13T03:18:34.638Z,-19612.09
2022-12-13T03:19:37.999Z,-19298.97
2022-12-13T03:20:45.082Z,-19298.59
2022-12-13T03:21:50.364Z,-19298.97
2022-12-13T03:22:54.465Z,-19300.03
2022-12-13T03:23:57.565Z,-19298.97
2022-12-13T03:25:00.808Z,-19298.97
2022-12-13T03:26:18.928Z,-19300.41
2022-12-13T03:27:22.052Z,-19302.19
2022-12-13T03:28:25.415Z,-19303.28
2022-12-13T03:29:28.538Z,-19303.81
2022-12-13T03:30:33.582Z,-19306.50
2022-12-13T03:31:36.748Z,-18989.31
2022-12-13T03:32:39.944Z,-18990.72
2022-12-13T03:33:43.182Z,-18991.09
2022-12-13T03:34:50.846Z,-19305.59
2022-12-13T03:36:04.187Z,-19306.84
2022-12-13T03:37:07.429Z,-19303.63
2022-12-13T03:38:11.629Z,-19305.59
2022-12-13T03:39:15.116Z,-19303.81
2022-12-13T03:40:20.273Z,-19305.25
2022-12-13T03:41:33.121Z,-19618.28
2022-12-13T03:42:36.358Z,-19302.56
2022-12-13T03:43:40.919Z,-19620.09
2022-12-13T03:44:44.520Z,-19621.19
2022-12-13T03:45:47.762Z,-19619.56
2022-12-13T03:46:51.054Z,-19618.66
2022-12-13T03:47:54.364Z,-19619.19
2022-12-13T03:48:57.728Z,-19619.38
2022-12-13T03:50:07.565Z,-19618.66
2022-12-13T03:51:24.015Z,-19621.19
2022-12-13T03:52:26.896Z,-19619.00
2022-12-13T03:53:33.832Z,-19934.03
2022-12-13T03:54:37.698Z,-19932.16
2022-12-13T03:55:40.579Z,-19932.00
2022-12-13T03:56:43.460Z,-19932.16
2022-12-13T03:57:45.984Z,-19931.44
2022-12-13T03:58:48.743Z,-19931.44
2022-12-13T03:59:51.266Z,-19931.63
2022-12-13T04:00:53.839Z,-19928.84
2022-12-13T04:01:56.464Z,-19929.59
2022-12-13T04:02:59.108Z,-19930.34
2022-12-13T04:04:01.647Z,-19931.06
2022-12-13T04:05:04.406Z,-19930.69
2022-12-13T04:06:07.882Z,-19932.16
2022-12-13T04:07:21.679Z,-19930.34
2022-12-13T04:08:24.814Z,-19928.50
2022-12-13T04:09:27.404Z,-19928.13
2022-12-13T04:10:29.967Z,-19926.47
2022-12-13T04:11:50.850Z,-19925.91
2022-12-13T04:13:11.452Z,-19930.50
2022-12-13T04:14:21.731Z,-19923.69
2022-12-13T04:15:25.410Z,-19925.72
2022-12-13T04:16:27.971Z,-19924.63
2022-12-13T04:17:30.656Z,-19924.97
2022-12-13T04:18:33.211Z,-19924.97
2022-12-13T04:19:35.697Z,-19925.72
2022-12-13T04:20:38.255Z,-19926.47
2022-12-13T04:21:40.771Z,-19926.63
2022-12-13T04:22:43.504Z,-19927.56
2022-12-13T04:23:46.053Z,-19925.72
2022-12-13T04:24:48.693Z,-19927.00
2022-12-13T04:25:51.577Z,-19929.22
2022-12-13T04:26:54.189Z,-19931.81
2022-12-13T04:27:56.615Z,-19931.06
2022-12-13T04:29:00.098Z,-19931.63
2022-12-13T04:30:02.740Z,-19931.25
2022-12-13T04:31:05.644Z,-19930.69
2022-12-13T04:32:26.749Z,-19929.41
2022-12-13T04:33:29.621Z,-19929.22
2022-12-13T04:34:37.188Z,-19926.63
2022-12-13T04:35:40.181Z,-19927.75
2022-12-13T04:36:42.703Z,-19926.63
2022-12-13T04:37:45.225Z,-19928.31
2022-12-13T04:38:47.865Z,-19928.13
2022-12-13T04:39:50.383Z,-19926.63
2022-12-13T04:40:52.909Z,-19926.63
2022-12-13T04:41:55.432Z,-19925.16
2022-12-13T04:42:57.951Z,-19923.13
2022-12-13T04:44:00.467Z,-19924.44
2022-12-13T04:45:03.228Z,-19922.94
2022-12-13T04:46:05.959Z,-19921.84
2022-12-13T04:47:08.996Z,-19924.06
2022-12-13T04:48:11.511Z,-19925.91
2022-12-13T04:49:14.031Z,-19927.75
2022-12-13T04:50:16.799Z,-19931.25
2022-12-13T04:51:19.552Z,-19933.28
2022-12-13T04:52:22.923Z,-19929.97
2022-12-13T04:53:25.555Z,-19927.00
2022-12-13T04:54:28.073Z,-19925.16
2022-12-13T04:55:39.239Z,-19924.97
2022-12-13T04:56:41.757Z,-19928.47
2022-12-13T04:57:44.284Z,-19928.13
2022-12-13T04:58:46.807Z,-19925.34
2022-12-13T04:59:49.444Z,-19931.44
2022-12-13T05:00:51.909Z,-19928.47
2022-12-13T05:02:32.263Z,-19932.16
2022-12-13T05:03:42.610Z,-19931.06
2022-12-13T05:04:48.022Z,-19934.22
2022-12-13T05:05:57.013Z,-19932.91
2022-12-13T05:06:59.544Z,-19931.44
2022-12-13T05:08:02.258Z,-19927.38
2022-12-13T05:09:04.818Z,-19926.28
2022-12-13T05:10:34.046Z,-19927.19
2022-12-13T05:11:36.503Z,-19920.00
2022-12-13T05:12:48.150Z,-19921.84
2022-12-13T05:13:50.907Z,-19924.81
2022-12-13T05:14:54.033Z,-19927.75
2022-12-13T05:16:01.830Z,-19929.22
2022-12-13T05:17:04.497Z,-19929.59
2022-12-13T05:18:10.658Z,-19924.06
2022-12-13T05:19:13.955Z,-19921.47
2022-12-13T05:20:16.957Z,-19605.19
2022-12-13T05:21:20.082Z,-19601.19
2022-12-13T05:22:23.095Z,-19603.00
2022-12-13T05:23:26.201Z,-19603.75
2022-12-13T05:24:31.002Z,-19603.00
2022-12-13T05:25:35.565Z,-19603.91
2022-12-13T05:26:38.686Z,-19288.22
2022-12-13T05:27:41.807Z,-19286.78
2022-12-13T05:28:44.929Z,-18972.38
2022-12-13T05:29:48.171Z,-18656.88
2022-12-13T05:30:51.415Z,-18655.84
2022-12-13T05:31:54.591Z,-18339.69
2022-12-13T05:32:57.777Z,-18340.91
2022-12-13T05:34:01.668Z,-18340.72
2022-12-13T05:35:05.339Z,-18340.38
2022-12-13T05:36:08.820Z,-18025.28
2022-12-13T05:37:12.064Z,-18024.94
2022-12-13T05:38:15.549Z,-18338.69
2022-12-13T05:39:29.474Z,-18341.06
2022-12-13T05:40:33.429Z,-18656.19
2022-12-13T05:41:37.992Z,-18657.22
2022-12-13T05:42:41.361Z,-18973.25
2022-12-13T05:43:44.835Z,-18658.63
2022-12-13T05:44:48.076Z,-18657.22
2022-12-13T05:45:51.698Z,-18025.97
2022-12-13T05:46:55.279Z,-18026.47
2022-12-13T05:47:59.723Z,-18342.78
2022-12-13T05:49:03.323Z,-18341.94
2022-12-13T05:50:07.065Z,-18342.09
2022-12-13T05:51:12.082Z,-18658.28
2022-12-13T05:52:20.367Z,-18975.91
2022-12-13T05:53:30.506Z,-18658.28
2022-12-13T05:54:34.533Z,-18342.97
2022-12-13T05:55:39.093Z,-18343.47
2022-12-13T05:56:42.214Z,-18342.44
2022-12-13T05:57:50.990Z,-18027.16
2022-12-13T05:58:54.830Z,-17711.19
2022-12-13T05:59:58.428Z,-17710.53
2022-12-13T06:01:07.217Z,-18341.75
2022-12-13T06:02:10.663Z,-18343.81
2022-12-13T06:03:14.057Z,-18660.72
2022-12-13T06:04:22.585Z,-18344.84
2022-12-13T06:05:26.686Z,-17713.84
2022-12-13T06:06:30.479Z,-18028.34
2022-12-13T06:07:33.405Z,-18345.53
2022-12-13T06:08:37.216Z,-18345.19
2022-12-13T06:09:40.365Z,-18030.69
2022-12-13T06:10:43.485Z,-18031.19
2022-12-13T06:11:46.252Z,-17717.84
2022-12-13T06:12:49.356Z,-17401.34
2022-12-13T06:13:53.402Z,-17086.47
2022-12-13T06:15:05.209Z,-16770.34
2022-12-13T06:16:25.045Z,-16770.81
2022-12-13T06:17:32.575Z,-17085.84
2022-12-13T06:18:36.413Z,-17087.13
2022-12-13T06:19:39.294Z,-16771.63
2022-12-13T06:20:41.899Z,-16139.72
2022-12-13T06:21:46.493Z,-17086.31
2022-12-13T06:22:49.338Z,-16772.88
2022-12-13T06:23:51.775Z,-16773.19
2022-12-13T06:24:55.020Z,-16774.47
2022-12-13T06:25:58.103Z,-16142.47
2022-12-13T06:27:00.655Z,-16140.34
2022-12-13T06:28:03.430Z,-16140.03
2022-12-13T06:29:05.941Z,-16140.34
2022-12-13T06:30:09.178Z,-16140.03
2022-12-13T06:31:12.003Z,-15824.59
2022-12-13T06:32:14.699Z,-16140.66
2022-12-13T06:33:23.103Z,-16140.94
2022-12-13T06:34:26.463Z,-16141.41
2022-12-13T06:35:30.946Z,-16141.88
2022-12-13T06:36:35.823Z,-16140.78
2022-12-13T06:37:39.161Z,-15825.50
2022-12-13T06:38:43.126Z,-16140.66
2022-12-13T06:39:47.592Z,-16139.41
2022-12-13T06:40:50.105Z,-15824.28
2022-12-13T06:41:52.625Z,-15509.16
2022-12-13T06:42:55.157Z,-15822.91
2022-12-13T06:43:58.388Z,-16139.13
2022-12-13T06:45:00.909Z,-15824.13
2022-12-13T06:46:06.457Z,-16139.41
2022-12-13T06:47:11.977Z,-15824.44
2022-12-13T06:48:20.109Z,-15821.88
2022-12-13T06:49:22.990Z,-15822.91
2022-12-13T06:50:25.638Z,-16454.09
2022-12-13T06:51:33.294Z,-16139.41
2022-12-13T06:52:36.676Z,-16140.78
2022-12-13T06:53:40.634Z,-15824.28
2022-12-13T06:54:43.516Z,-15507.66
2022-12-13T06:55:46.281Z,-15506.78
2022-12-13T06:56:48.795Z,-15507.53
2022-12-13T06:57:51.950Z,-15506.94
2022-12-13T06:59:01.986Z,-15506.19
2022-12-13T07:00:05.494Z,-15505.75
2022-12-13T07:01:15.048Z,-15822.47
2022-12-13T07:02:26.388Z,-15821.88
2022-12-13T07:03:29.788Z,-15822.16
2022-12-13T07:04:32.976Z,-15822.47
2022-12-13T07:05:37.526Z,-15822.47
2022-12-13T07:06:45.936Z,-15821.28
2022-12-13T07:07:48.910Z,-15820.66
2022-12-13T07:08:56.975Z,-16137.56
2022-12-13T07:09:59.500Z,-16136.97
2022-12-13T07:11:03.096Z,-16137.56
2022-12-13T07:12:05.685Z,-16137.28
2022-12-13T07:13:08.501Z,-16137.44
2022-12-13T07:14:11.031Z,-15822.47
2022-12-13T07:15:13.787Z,-15821.88
2022-12-13T07:16:16.565Z,-15506.47
2022-12-13T07:17:34.059Z,-15505.88
2022-12-13T07:18:38.390Z,-15820.81
2022-12-13T07:19:41.174Z,-16137.72
2022-12-13T07:20:45.721Z,-16456.44
2022-12-13T07:21:48.715Z,-15508.13
2022-12-13T07:22:58.757Z,-15506.19
2022-12-13T07:24:02.407Z,-15189.38
2022-12-13T07:25:05.640Z,-15505.28
2022-12-13T07:26:09.360Z,-15190.25
2022-12-13T07:27:12.371Z,-15188.78
2022-12-13T07:28:15.609Z,-14872.03
2022-12-13T07:29:22.422Z,-15188.19
2022-12-13T07:30:25.932Z,-15187.63
2022-12-13T07:31:30.552Z,-15504.13
2022-12-13T07:32:33.613Z,-15187.63
2022-12-13T07:33:37.577Z,-15186.03
2022-12-13T07:34:40.816Z,-14870.63
2022-12-13T07:35:44.537Z,-15501.44
2022-12-13T07:36:50.898Z,-15502.19
2022-12-13T07:37:54.020Z,-15817.50
2022-12-13T07:38:58.344Z,-16132.66
2022-12-13T07:40:04.273Z,-15501.44
2022-12-13T07:41:08.345Z,-15502.63
2022-12-13T07:42:11.552Z,-15502.63
2022-12-13T07:43:16.532Z,-15501.88
2022-12-13T07:44:20.671Z,-15817.81
2022-12-13T07:45:24.632Z,-16134.50
2022-12-13T07:46:32.588Z,-15502.19
2022-12-13T07:47:36.996Z,-15503.22
2022-12-13T07:48:40.242Z,-16133.59
2022-12-13T07:49:43.360Z,-15818.56
2022-12-13T07:50:54.637Z,-15819.47
2022-12-13T07:51:58.243Z,-15188.19
2022-12-13T07:53:06.405Z,-15504.25
2022-12-13T07:54:09.889Z,-16136.34
2022-12-13T07:55:13.975Z,-15505.28
2022-12-13T07:56:17.331Z,-15822.63
2022-12-13T07:57:20.454Z,-15824.13
2022-12-13T07:58:23.814Z,-15822.78
2022-12-13T07:59:28.295Z,-15824.28
2022-12-13T08:00:33.108Z,-15825.19
2022-12-13T08:01:36.746Z,-14878.91
2022-12-13T08:02:41.461Z,-15194.88
2022-12-13T08:03:44.582Z,-14562.38
2022-12-13T08:04:54.669Z,-14561.53
2022-12-13T08:06:10.146Z,-14878.19
2022-12-13T08:07:12.908Z,-14246.19
2022-12-13T08:08:15.706Z,-15195.91
2022-12-13T08:09:18.315Z,-14878.91
2022-12-13T08:10:21.191Z,-14878.63
2022-12-13T08:11:23.841Z,-15196.94
2022-12-13T08:12:26.842Z,-15198.53
2022-12-13T08:13:29.646Z,-15514.94
2022-12-13T08:14:32.408Z,-16146.47
2022-12-13T08:15:35.001Z,-16146.78
2022-12-13T08:16:37.581Z,-15833.31
2022-12-13T08:17:42.691Z,-15832.72
2022-12-13T08:18:47.772Z,-15833.63
2022-12-13T08:19:50.293Z,-15517.44
2022-12-13T08:20:52.890Z,-15200.44
2022-12-13T08:21:58.542Z,-15200.84
2022-12-13T08:23:04.534Z,-14569.13
2022-12-13T08:24:13.933Z,-14885.63
2022-12-13T08:25:18.378Z,-14255.41
2022-12-13T08:26:20.859Z,-14255.56
2022-12-13T08:27:23.424Z,-14256.09
2022-12-13T08:28:27.516Z,-13623.09
2022-12-13T08:29:34.439Z,-13939.25
2022-12-13T08:30:37.833Z,-13625.09
2022-12-13T08:31:40.365Z,-14256.66
2022-12-13T08:32:43.581Z,-13942.22
2022-12-13T08:33:47.540Z,-13942.22
2022-12-13T08:34:50.666Z,-13627.22
2022-12-13T08:35:53.301Z,-12993.88
2022-12-13T08:37:01.472Z,-12679.44
2022-12-13T08:38:06.982Z,-13627.88
2022-12-13T08:39:09.506Z,-13312.34
2022-12-13T08:40:12.265Z,-13311.94
2022-12-13T08:41:14.910Z,-13312.72
2022-12-13T08:42:20.058Z,-12997.44
2022-12-13T08:43:24.593Z,-12997.81
2022-12-13T08:44:27.749Z,-12997.44
2022-12-13T08:45:31.829Z,-12997.69
2022-12-13T08:46:34.381Z,-12682.44
2022-12-13T08:47:41.551Z,-12682.91
2022-12-13T08:48:44.744Z,-12683.16
2022-12-13T08:49:48.030Z,-12367.63
2022-12-13T08:50:50.556Z,-12682.91
2022-12-13T08:51:53.074Z,-12052.13
2022-12-13T08:52:55.710Z,-12366.53
2022-12-13T08:54:10.917Z,-12049.97
2022-12-13T08:55:15.763Z,-12049.25
2022-12-13T08:56:20.939Z,-12365.81
2022-12-13T08:57:23.440Z,-12367.28
2022-12-13T08:58:25.959Z,-12050.81
2022-12-13T08:59:28.493Z,-12366.78
2022-12-13T09:00:35.792Z,-12367.75
2022-12-13T09:01:39.124Z,-12052.38
2022-12-13T09:02:42.129Z,-12683.78
2022-12-13T09:03:44.680Z,-12685.28
2022-12-13T09:04:47.206Z,-12370.56
2022-12-13T09:05:50.084Z,-12053.44
2022-12-13T09:06:52.605Z,-12054.28
2022-12-13T09:08:02.964Z,-12370.09
2022-12-13T09:09:05.569Z,-11737.91
2022-12-13T09:10:26.625Z,-12053.09
2022-12-13T09:11:33.161Z,-12368.88
2022-12-13T09:12:42.915Z,-12685.16
2022-12-13T09:13:45.544Z,-13002.28
2022-12-13T09:14:48.058Z,-13002.53
2022-12-13T09:15:50.597Z,-13319.22
2022-12-13T09:16:53.210Z,-13003.81
2022-12-13T09:17:56.006Z,-13637.81
2022-12-13T09:19:25.484Z,-13321.94
2022-12-13T09:20:30.174Z,-13641.53
2022-12-13T09:21:33.069Z,-13957.34
2022-12-13T09:22:36.213Z,-13959.22
2022-12-13T09:23:45.849Z,-13960.31
2022-12-13T09:24:50.174Z,-13961.94
2022-12-13T09:25:55.400Z,-14278.41
2022-12-13T09:26:58.399Z,-13962.47
2022-12-13T09:28:04.280Z,-13964.66
2022-12-13T09:29:10.750Z,-13966.00
2022-12-13T09:30:14.733Z,-13966.66
2022-12-13T09:31:20.394Z,-14284.19
2022-12-13T09:32:24.326Z,-13019.59
2022-12-13T09:33:29.830Z,-13019.84
2022-12-13T09:34:34.375Z,-12704.88
2022-12-13T09:35:39.455Z,-13336.88
2022-12-13T09:36:42.695Z,-13022.78
2022-12-13T09:37:46.452Z,-12390.34
2022-12-13T09:38:49.777Z,-12391.69
2022-12-13T09:39:55.164Z,-12709.38
2022-12-13T09:41:00.822Z,-11761.41
2022-12-13T09:42:10.645Z,-12078.41
2022-12-13T09:43:32.118Z,-12396.34
2022-12-13T09:45:01.106Z,-11765.38
2022-12-13T09:46:13.416Z,-11449.50
2022-12-13T09:47:35.326Z,-11134.50
2022-12-13T09:48:38.873Z,-10818.81
2022-12-13T09:49:52.631Z,-10818.47
2022-12-13T09:51:16.586Z,-9554.72
2022-12-13T09:52:24.127Z,-9238.00
2022-12-13T09:53:33.892Z,-9238.00
2022-12-13T09:54:47.139Z,-7972.09
2022-12-13T09:55:52.927Z,-8604.03
2022-12-13T09:56:58.087Z,-8604.13
2022-12-13T09:58:08.889Z,-9552.34
2022-12-13T09:59:14.652Z,-9552.16
2022-12-13T10:00:21.627Z,-9552.75
2022-12-13T10:01:26.406Z,-9552.56
2022-12-13T10:02:32.401Z,-9235.97
2022-12-13T10:03:35.419Z,-8919.72
2022-12-13T10:04:38.419Z,-8919.53
2022-12-13T10:05:46.821Z,-8918.59
2022-12-13T10:06:54.262Z,-8918.03
2022-12-13T10:08:00.391Z,-8285.63
2022-12-13T10:09:03.512Z,-8917.28
2022-12-13T10:10:07.233Z,-8917.56
2022-12-13T10:11:14.430Z,-8918.31
2022-12-13T10:12:17.313Z,-8918.22
2022-12-13T10:13:45.929Z,-9549.19
2022-12-13T10:14:55.598Z,-9549.69
2022-12-13T10:16:02.766Z,-9549.88
2022-12-13T10:17:09.446Z,-9865.53
2022-12-13T10:18:20.684Z,-9865.03
2022-12-13T10:19:44.730Z,-10815.09
2022-12-13T10:20:50.494Z,-9548.91
2022-12-13T10:21:53.130Z,-9232.13
2022-12-13T10:24:37.366Z,-10181.19
2022-12-13T10:26:03.173Z,-10813.78
2022-12-13T10:27:15.697Z,-11129.47
2022-12-13T10:28:24.539Z,-11130.81
2022-12-13T10:29:27.215Z,-10815.31
2022-12-13T10:30:46.360Z,-11764.44
2022-12-13T10:31:53.092Z,-11449.72
2022-12-13T10:32:59.625Z,-10816.63
2022-12-13T10:34:02.260Z,-10501.94
2022-12-13T10:35:31.060Z,-10818.16
2022-12-13T10:36:42.357Z,-11135.16
2022-12-13T10:37:44.981Z,-11135.41
2022-12-13T10:38:47.620Z,-10503.00
2022-12-13T10:39:50.745Z,-10504.59
2022-12-13T10:40:53.509Z,-9872.22
2022-12-13T10:42:04.672Z,-10188.25
2022-12-13T10:43:18.709Z,-9556.81
2022-12-13T10:44:24.348Z,-8923.84
2022-12-13T10:45:26.868Z,-9557.19
2022-12-13T10:46:31.310Z,-9558.78
2022-12-13T10:47:44.636Z,-9560.16
2022-12-13T10:48:50.749Z,-8926.63
2022-12-13T10:49:58.968Z,-8927.38
2022-12-13T10:51:11.107Z,-9560.06
2022-12-13T10:52:31.293Z,-8927.19
2022-12-13T10:53:47.419Z,-9245.09
2022-12-13T10:54:51.593Z,-8930.00
2022-12-13T10:55:56.515Z,-8615.03
2022-12-13T10:57:05.518Z,-8930.94
2022-12-13T10:58:18.716Z,-8615.41
2022-12-13T10:59:31.199Z,-8615.13
2022-12-13T11:00:39.018Z,-9565.09
2022-12-13T11:01:41.716Z,-10198.44
2022-12-13T11:02:55.089Z,-9565.97
2022-12-13T11:04:02.225Z,-9566.78
2022-12-13T11:05:23.889Z,-9883.25
2022-12-13T11:06:28.684Z,-9883.78
2022-12-13T11:07:33.733Z,-9251.16
2022-12-13T11:08:36.741Z,-9251.06
2022-12-13T11:09:40.113Z,-9251.25
2022-12-13T11:10:43.697Z,-9252.41
2022-12-13T11:11:46.934Z,-8619.41
2022-12-13T11:12:50.672Z,-8302.56
2022-12-13T11:13:57.521Z,-7985.63
2022-12-13T11:15:03.512Z,-8302.03
2022-12-13T11:16:28.057Z,-7669.13
2022-12-13T11:17:33.740Z,-8302.13
2022-12-13T11:18:38.801Z,-7987.16
2022-12-13T11:19:47.555Z,-8302.84
2022-12-13T11:21:02.426Z,-8620.22
2022-12-13T11:22:05.546Z,-7987.16
2022-12-13T11:23:23.309Z,-8302.66
2022-12-13T11:24:33.391Z,-7987.41
2022-12-13T11:25:45.527Z,-8303.81
2022-12-13T11:26:56.553Z,-8619.94
2022-12-13T11:28:26.539Z,-8303.63
2022-12-13T11:29:48.998Z,-8620.22
2022-12-13T11:31:01.435Z,-8935.78
2022-12-13T11:32:27.164Z,-9252.78
2022-12-13T11:34:06.297Z,-9252.69
2022-12-13T11:35:12.300Z,-8936.34
2022-12-13T11:36:35.330Z,-9568.94
2022-12-13T11:38:08.575Z,-9251.91
2022-12-13T11:39:35.336Z,-9885.28
2022-12-13T11:40:54.176Z,-8935.44
2022-12-13T11:42:11.458Z,-9568.44
2022-12-13T11:43:53.700Z,-9885.28
2022-12-13T11:45:23.046Z,-9250.88
2022-12-13T11:46:48.786Z,-9567.56
2022-12-13T11:48:10.511Z,-9566.28
2022-12-13T11:49:20.598Z,-9249.72
2022-12-13T11:50:35.958Z,-9249.53
2022-12-13T11:51:49.274Z,-8933.94
2022-12-13T11:52:59.836Z,-8934.13
2022-12-13T11:54:24.442Z,-8933.66
2022-12-13T11:55:45.205Z,-9566.97
2022-12-13T11:56:50.913Z,-9250.28
2022-12-13T11:59:00.700Z,-9883.38
2022-12-13T12:00:02.179Z,-9565.88
2022-12-13T12:01:15.571Z,-9882.66
2022-12-13T12:02:35.236Z,-9883.06
2022-12-13T12:03:44.877Z,-10199.78
2022-12-13T12:05:00.829Z,-10833.66
2022-12-13T12:06:13.897Z,-10833.44
2022-12-13T12:07:32.768Z,-11149.78
2022-12-13T12:08:47.695Z,-11149.69
2022-12-13T12:10:13.789Z,-11152.38
2022-12-13T12:11:44.989Z,-11469.72
2022-12-13T12:12:59.150Z,-10519.84
2022-12-13T12:14:11.269Z,-10519.94
2022-12-13T12:15:15.105Z,-10521.00
2022-12-13T12:16:39.160Z,-11154.16
2022-12-13T12:17:42.816Z,-10837.78
2022-12-13T12:18:45.959Z,-10204.25
2022-12-13T12:19:53.964Z,-8619.41
2022-12-13T12:20:59.523Z,-9251.44
2022-12-13T12:22:13.792Z,-9568.44
2022-12-13T12:23:40.012Z,-9884.06
2022-12-13T12:25:00.537Z,-10516.44
2022-12-13T12:26:13.012Z,-10517.59
2022-12-13T12:27:22.790Z,-10833.66
2022-12-13T12:29:24.296Z,-11150.81
2022-12-13T12:30:41.217Z,-11467.56
2022-12-13T12:32:15.620Z,-11150.69
2022-12-13T12:33:31.223Z,-11149.78
2022-12-13T12:34:55.259Z,-11466.88
2022-12-13T12:36:22.591Z,-11150.81
2022-12-13T12:37:43.710Z,-11784.31
2022-12-13T12:39:01.144Z,-12101.47
2022-12-13T12:40:29.159Z,-12735.81
2022-12-13T12:42:06.277Z,-12736.06
2022-12-13T12:43:27.348Z,-12420.41
2022-12-13T12:44:51.165Z,-12420.50
2022-12-13T12:46:03.176Z,-12103.63
2022-12-13T12:48:41.264Z,-12106.03
2022-12-13T12:49:30.859Z,-11790.06
2022-12-13T12:51:02.955Z,-11473.03
2022-12-13T12:52:26.029Z,-11474.75
2022-12-13T12:53:50.715Z,-11158.19
2022-12-13T12:55:16.399Z,-10208.63
2022-12-13T12:56:37.052Z,-10208.81
2022-12-13T12:58:11.835Z,-9892.19
2022-12-13T12:59:31.399Z,-8942.34
2022-12-13T13:00:53.598Z,-8942.63
2022-12-13T13:02:00.599Z,-9259.69
2022-12-13T13:03:17.368Z,-8624.56